Estación Meteorológica Peña el Pijo (Robertgarden) [ 11/12/18 20:34:03 CET ]

Fecha Hora Presion(HPa) Temp (°C) Humedad % Rocio (°C) Viento ( m/s) Direccion Lluvia 1Hora(mm) Lluvia 24H(mm) LLuvia Total(mm)
2018-Sep-29 01:01:38 1011.900 10.2 80 6.9         356.38
2018-Sep-29 02:01:49 1011.700 8.9 81 5.8         356.38
2018-Sep-29 03:01:41 1011.500 8.5 83 5.8         356.38
2018-Sep-29 04:01:40 1011.400 8.1 84 5.6         356.38
2018-Sep-29 05:01:38 1011.000 7.1 84 4.6         356.38
2018-Sep-29 06:03:31 1010.700 6.4 85 4.0         356.38
2018-Sep-29 07:01:57 1010.600 6.1 85 3.8         356.38
2018-Sep-29 08:01:48 1010.900 5.8 86 3.6         356.38
2018-Sep-29 09:01:49 1011.000 5.3 86 3.1         356.38
2018-Sep-29 10:01:44 1011.200 13.2 88 11.2         356.38
2018-Sep-29 11:01:49 1011.000 20.3 58 11.8         356.38
2018-Sep-29 12:01:48 1010.700 25.5 38 10.1         356.38
2018-Sep-29 13:01:41 1010.100 27.8 26 6.3         356.38
2018-Sep-29 14:02:00 1009.600 27.8 22 4.0         356.38
2018-Sep-29 15:01:36 1009.100 29.2 21 4.5         356.38
2018-Sep-29 16:01:49 1008.800 29.3 25 7.0         356.38
2018-Sep-29 17:01:35 1008.600 27.6 24 5.0         356.38
2018-Sep-29 18:01:45 1008.400 26.8 26 5.5         356.38
2018-Sep-29 19:01:46 1008.700 23.2 29 4.1         356.38
2018-Sep-29 20:01:51 1009.100 18.9 38 4.2         356.38
2018-Sep-29 21:01:32 1009.900 15.3 45 3.4         356.38
2018-Sep-29 22:01:58 1010.600 11.9 57 3.6         356.38
2018-Sep-29 23:01:32 1011.100 10.3 64 3.8         356.38

Temperatura Máxima:29°    Temperatura Mínima:
Presión Máxima:1011.900 Hpa    Presión Mínima:1008.400 Hpa


Volver